Time;durP1;ratioP1;P1;durP2;ratioP2;P2;SDS_P1;SDS_P2;PMS_P1;PMS_P2;Temp;Humidity;BMP_temperature;BMP_pressure;BME280_temperature;BME280_humidity;BME280_pressure;Samples;Min_cycle;Max_cycle;Signal;HPM_P1;HPM_P2
2022/10/31 00:01:59;;;;;;;23.43;13.07;;;13.00;99.90;;;;;;5071908;28;20083;-75
2022/10/31 00:04:24;;;;;;;16.23;11.57;;;13.00;99.90;;;;;;5071538;28;20040;-76
2022/10/31 00:06:50;;;;;;;20.27;12.73;;;12.90;99.90;;;;;;5073297;28;20045;-75
2022/10/31 00:09:15;;;;;;;21.93;12.23;;;12.90;99.90;;;;;;5072946;28;20400;-75
2022/10/31 00:11:41;;;;;;;20.87;12.17;;;13.00;99.90;;;;;;5072685;28;20051;-75
2022/10/31 00:14:07;;;;;;;16.87;12.17;;;13.00;99.90;;;;;;5073043;28;20052;-75
2022/10/31 00:16:33;;;;;;;15.70;11.20;;;13.00;99.90;;;;;;5072762;28;20052;-75
2022/10/31 00:19:00;;;;;;;20.83;11.90;;;13.00;99.90;;;;;;5073157;28;20127;-75
2022/10/31 00:21:27;;;;;;;20.00;12.30;;;12.90;99.90;;;;;;5072638;28;20122;-75
2022/10/31 00:23:52;;;;;;;20.53;12.77;;;12.90;99.90;;;;;;5073713;28;20052;-75
2022/10/31 00:26:18;;;;;;;15.80;11.80;;;12.90;99.90;;;;;;5076898;28;20299;-75
2022/10/31 00:28:44;;;;;;;15.87;11.97;;;12.90;99.90;;;;;;5076691;28;20052;-75
2022/10/31 00:31:12;;;;;;;18.27;11.63;;;12.90;99.90;;;;;;5076856;28;20550;-75
2022/10/31 00:33:39;;;;;;;20.30;12.90;;;12.90;99.90;;;;;;5076642;28;20044;-75
2022/10/31 00:36:06;;;;;;;20.07;11.60;;;12.90;99.90;;;;;;5076794;28;20267;-75
2022/10/31 00:38:32;;;;;;;17.67;12.30;;;12.90;99.90;;;;;;5076483;28;20275;-75
2022/10/31 00:40:57;;;;;;;18.80;12.33;;;12.80;99.90;;;;;;5075693;28;20371;-75
2022/10/31 00:43:23;;;;;;;16.60;11.63;;;12.80;99.90;;;;;;5076603;28;20718;-75
2022/10/31 00:45:49;;;;;;;21.90;13.63;;;12.80;99.90;;;;;;5076239;28;20065;-75
2022/10/31 00:48:15;;;;;;;21.27;11.70;;;12.80;99.90;;;;;;5076556;28;20393;-75
2022/10/31 00:50:41;;;;;;;17.60;11.93;;;12.80;99.90;;;;;;5076158;28;20053;-75
2022/10/31 00:53:07;;;;;;;21.50;12.13;;;12.80;99.90;;;;;;5076442;28;20044;-75
2022/10/31 00:55:33;;;;;;;17.50;12.47;;;12.70;99.90;;;;;;5076079;28;20041;-75
2022/10/31 00:57:59;;;;;;;16.77;11.50;;;12.70;99.90;;;;;;5076383;28;20090;-75
2022/10/31 01:00:24;;;;;;;17.33;11.83;;;12.70;99.90;;;;;;5075477;28;20040;-75
2022/10/31 01:02:50;;;;;;;16.07;12.60;;;12.70;99.90;;;;;;5075096;28;20118;-75
2022/10/31 01:05:16;;;;;;;17.57;12.43;;;12.70;99.90;;;;;;5076618;28;20102;-75
2022/10/31 01:07:42;;;;;;;21.87;12.53;;;12.70;99.90;;;;;;5075858;28;20036;-75
2022/10/31 01:10:09;;;;;;;20.10;12.77;;;12.70;99.90;;;;;;5075179;28;20045;-75
2022/10/31 01:12:44;;;;;;;16.37;12.37;;;12.70;99.90;;;;;;5074865;28;20344;-75
2022/10/31 01:15:11;;;;;;;15.90;11.60;;;12.70;99.90;;;;;;5058409;28;20290;-75
2022/10/31 01:17:37;;;;;;;18.27;12.20;;;12.70;99.90;;;;;;5075599;28;20127;-75
2022/10/31 01:20:05;;;;;;;18.63;13.93;;;12.70;99.90;;;;;;5075696;28;20275;-75
2022/10/31 01:22:31;;;;;;;20.87;13.13;;;12.60;99.90;;;;;;5073707;28;20310;-75
2022/10/31 01:24:56;;;;;;;24.20;13.67;;;12.60;99.90;;;;;;5073867;28;20313;-75
2022/10/31 01:27:22;;;;;;;20.93;13.20;;;12.60;99.90;;;;;;5074053;28;20072;-75
2022/10/31 01:29:48;;;;;;;19.23;12.37;;;12.60;99.90;;;;;;5074387;28;20088;-75
2022/10/31 01:32:13;;;;;;;18.83;13.53;;;12.60;99.90;;;;;;5074634;28;20051;-75
2022/10/31 01:34:39;;;;;;;20.03;12.87;;;12.60;99.90;;;;;;5073860;28;20396;-75
2022/10/31 01:37:05;;;;;;;17.37;12.80;;;12.50;99.90;;;;;;5073550;28;20131;-75
2022/10/31 01:39:30;;;;;;;19.60;13.20;;;12.50;99.90;;;;;;5074527;28;20044;-75
2022/10/31 01:41:56;;;;;;;16.97;12.37;;;12.50;99.90;;;;;;5074249;28;20481;-75
2022/10/31 01:44:22;;;;;;;17.27;12.63;;;12.50;99.90;;;;;;5074472;28;20048;-75
2022/10/31 01:47:13;;;;;;;16.37;12.27;;;12.50;99.90;;;;;;5074117;28;20041;-75
2022/10/31 01:49:46;;;;;;;22.87;14.60;;;12.50;99.90;;;;;;5073167;28;20393;-75
2022/10/31 01:52:32;;;;;;;20.17;12.63;;;12.50;99.90;;;;;;5074311;28;20283;-75
2022/10/31 01:54:57;;;;;;;;;;;12.50;99.90;;;;;;5074433;28;20287;-75
2022/10/31 01:57:24;;;;;;;20.10;13.57;;;12.50;99.90;;;;;;5074207;28;19928;-75
2022/10/31 01:59:54;;;;;;;20.90;12.80;;;12.50;99.90;;;;;;5073887;28;20048;-75
2022/10/31 02:02:20;;;;;;;20.33;13.57;;;12.50;99.90;;;;;;5074185;28;20279;-75
2022/10/31 02:04:47;;;;;;;17.03;14.80;;;12.50;99.90;;;;;;5073807;28;20283;-75
2022/10/31 02:07:42;;;;;;;21.57;15.10;;;12.40;99.90;;;;;;5074025;28;20036;-75
2022/10/31 02:10:08;;;;;;;19.93;14.33;;;12.40;99.90;;;;;;5074321;28;20318;-74
2022/10/31 02:12:36;;;;;;;23.60;14.77;;;12.40;99.90;;;;;;5074051;28;20697;-75
2022/10/31 02:15:03;;;;;;;21.47;14.33;;;12.40;99.90;;;;;;5073661;28;20385;-75
2022/10/31 02:17:30;;;;;;;22.43;14.53;;;12.40;99.90;;;;;;5073793;28;20287;-75
2022/10/31 02:20:14;;;;;;;19.43;13.97;;;12.30;99.90;;;;;;5073646;28;20358;-75
2022/10/31 02:22:58;;;;;;;18.80;14.00;;;12.40;99.90;;;;;;5073810;28;20286;-74
2022/10/31 02:25:58;;;;;;;21.13;13.70;;;12.40;99.90;;;;;;5072851;28;20302;-75
2022/10/31 02:28:33;;;;;;;24.17;14.93;;;12.30;99.90;;;;;;5035606;28;1103678;-75
2022/10/31 02:31:08;;;;;;;20.10;14.90;;;12.30;99.90;;;;;;5074093;28;20140;-75
2022/10/31 02:33:42;;;;;;;18.88;13.57;;;12.30;99.90;;;;;;5075141;28;20102;-75
2022/10/31 02:36:28;;;;;;;27.23;15.80;;;12.30;99.90;;;;;;5074071;28;20565;-75
2022/10/31 02:39:10;;;;;;;24.13;14.23;;;12.20;99.90;;;;;;5074300;28;20037;-75
2022/10/31 02:41:57;;;;;;;19.77;13.93;;;12.20;99.90;;;;;;5074686;28;20282;-75
2022/10/31 02:44:35;;;;;;;21.23;14.00;;;12.20;99.90;;;;;;5074326;28;20329;-75
2022/10/31 02:47:11;;;;;;;22.97;14.13;;;12.20;99.90;;;;;;5073315;28;20298;-75
2022/10/31 02:49:59;;;;;;;22.03;14.73;;;12.20;99.90;;;;;;5074334;28;20328;-74
2022/10/31 02:52:27;;;;;;;19.07;14.23;;;12.10;99.90;;;;;;5074500;28;20277;-75
2022/10/31 02:54:53;;;;;;;19.90;13.73;;;12.10;99.90;;;;;;5074032;28;20290;-75
2022/10/31 02:57:28;;;;;;;21.00;13.73;;;12.20;99.90;;;;;;5074382;28;20646;-75
2022/10/31 03:00:12;;;;;;;20.38;13.10;;;12.20;99.90;;;;;;5073877;28;20123;-75
2022/10/31 03:02:48;;;;;;;18.70;13.40;;;12.10;99.90;;;;;;5074222;28;20056;-74
2022/10/31 03:05:32;;;;;;;17.23;13.23;;;12.00;99.90;;;;;;5056750;28;20299;-75
2022/10/31 03:08:20;;;;;;;19.90;13.50;;;12.00;99.90;;;;;;5073609;28;20330;-75
2022/10/31 03:10:59;;;;;;;19.33;13.13;;;12.00;99.90;;;;;;5073940;28;20318;-75
2022/10/31 03:14:02;;;;;;;16.77;12.97;;;12.00;99.90;;;;;;5074125;28;20275;-75
2022/10/31 03:16:51;;;;;;;18.33;12.87;;;12.00;99.90;;;;;;5073797;28;20366;-75
2022/10/31 03:19:31;;;;;;;16.83;13.33;;;12.00;99.90;;;;;;5073866;28;20350;-75
2022/10/31 03:21:56;;;;;;;15.97;12.20;;;11.90;99.90;;;;;;5073620;28;20806;-75
2022/10/31 03:24:27;;;;;;;15.20;12.17;;;11.90;99.90;;;;;;5073898;28;20374;-75
2022/10/31 03:26:56;;;;;;;16.43;12.40;;;11.90;99.90;;;;;;5073462;28;20045;-75
2022/10/31 03:29:27;;;;;;;15.47;11.93;;;11.90;99.90;;;;;;5073775;28;20783;-75
2022/10/31 03:32:05;;;;;;;16.13;12.83;;;11.90;99.90;;;;;;5073559;28;20277;-76
2022/10/31 03:34:33;;;;;;;19.60;12.70;;;11.90;99.90;;;;;;5073459;28;20283;-75
2022/10/31 03:37:03;;;;;;;17.73;12.33;;;11.80;99.90;;;;;;5073278;28;20278;-75
2022/10/31 03:39:30;;;;;;;15.87;12.57;;;11.80;99.90;;;;;;5073682;28;20313;-75
2022/10/31 03:42:09;;;;;;;17.87;12.23;;;11.80;99.90;;;;;;5073200;28;20304;-75
2022/10/31 03:44:38;;;;;;;19.23;12.20;;;11.80;99.90;;;;;;5073401;28;20332;-75
2022/10/31 03:47:04;;;;;;;22.33;13.37;;;11.80;99.90;;;;;;5072940;28;20295;-75
2022/10/31 03:49:31;;;;;;;18.97;11.87;;;11.80;99.90;;;;;;5073369;28;20290;-75
2022/10/31 03:52:26;;;;;;;19.80;13.83;;;11.80;99.90;;;;;;5073029;28;20670;-75
2022/10/31 03:55:02;;;;;;;15.53;11.53;;;11.80;99.90;;;;;;5072285;28;20295;-75
2022/10/31 03:57:41;;;;;;;18.37;11.77;;;11.90;99.90;;;;;;5072456;28;20295;-75
2022/10/31 04:00:12;;;;;;;18.20;12.97;;;11.80;99.90;;;;;;5071784;28;20286;-75
2022/10/31 04:02:43;;;;;;;18.03;11.60;;;11.80;99.90;;;;;;5072790;28;20830;-75
2022/10/31 04:05:11;;;;;;;18.60;13.43;;;11.80;99.90;;;;;;5072099;28;20287;-75
2022/10/31 04:07:42;;;;;;;19.67;12.20;;;11.80;99.90;;;;;;5072987;28;20310;-75
2022/10/31 04:10:12;;;;;;;17.57;11.73;;;11.70;99.90;;;;;;5072895;28;20275;-75
2022/10/31 04:12:39;;;;;;;17.17;12.67;;;11.70;99.90;;;;;;5072975;28;20287;-75
2022/10/31 04:15:07;;;;;;;16.77;12.70;;;11.70;99.90;;;;;;5072702;28;20341;-75
2022/10/31 04:17:38;;;;;;;17.80;12.33;;;11.70;99.90;;;;;;5072920;28;20286;-75
2022/10/31 04:20:05;;;;;;;15.50;11.77;;;11.70;99.90;;;;;;5072716;28;20279;-75
2022/10/31 04:22:31;;;;;;;15.80;12.27;;;11.70;99.90;;;;;;5072955;28;20290;-75
2022/10/31 04:24:56;;;;;;;16.80;12.13;;;11.70;99.90;;;;;;5073025;28;20374;-75
2022/10/31 04:27:22;;;;;;;18.43;13.23;;;11.70;99.90;;;;;;5072046;28;20044;-75
2022/10/31 04:29:48;;;;;;;16.50;12.83;;;11.60;99.90;;;;;;5072949;28;20059;-75
2022/10/31 04:32:13;;;;;;;17.07;12.87;;;11.60;99.90;;;;;;5072581;28;20044;-75
2022/10/31 04:34:39;;;;;;;18.40;12.63;;;11.60;99.90;;;;;;5072820;28;20097;-75
2022/10/31 04:37:05;;;;;;;19.13;12.57;;;11.60;99.90;;;;;;5072616;28;20127;-75
2022/10/31 04:39:30;;;;;;;14.40;12.53;;;11.60;99.90;;;;;;5072809;28;20080;-75
2022/10/31 04:41:56;;;;;;;19.47;13.73;;;11.60;99.90;;;;;;5071730;28;20044;-75
2022/10/31 04:44:22;;;;;;;18.03;12.27;;;11.50;99.90;;;;;;5072546;28;20566;-75
2022/10/31 04:46:47;;;;;;;16.13;12.17;;;11.50;99.90;;;;;;5072637;28;20041;-75
2022/10/31 04:49:13;;;;;;;15.83;11.93;;;11.50;99.90;;;;;;5071486;28;20051;-75
2022/10/31 04:51:39;;;;;;;16.63;12.83;;;11.50;99.90;;;;;;5072391;28;20084;-75
2022/10/31 04:54:04;;;;;;;20.43;13.30;;;11.50;99.90;;;;;;5072043;28;20082;-75
2022/10/31 04:56:30;;;;;;;17.40;12.63;;;11.50;99.90;;;;;;5072310;28;20452;-75
2022/10/31 04:58:56;;;;;;;18.83;13.67;;;11.50;99.90;;;;;;5054680;28;20045;-75
2022/10/31 05:01:21;;;;;;;17.17;12.20;;;11.50;99.90;;;;;;5072256;28;20080;-75
2022/10/31 05:03:47;;;;;;;23.47;13.20;;;11.50;99.90;;;;;;5072556;28;20036;-75
2022/10/31 05:06:13;;;;;;;13.67;11.50;;;11.50;99.90;;;;;;5072193;28;20040;-75
2022/10/31 05:08:38;;;;;;;15.10;12.33;;;11.50;99.90;;;;;;5072591;28;20131;-74
2022/10/31 05:11:05;;;;;;;20.33;13.60;;;11.40;99.90;;;;;;5075029;28;20045;-75
2022/10/31 05:13:30;;;;;;;19.47;13.07;;;11.50;99.90;;;;;;5075492;28;20488;-75
2022/10/31 05:15:56;;;;;;;19.10;13.37;;;11.40;99.90;;;;;;5076067;28;20289;-75
2022/10/31 05:18:22;;;;;;;24.37;15.37;;;11.40;99.90;;;;;;5075774;28;20070;-75
2022/10/31 05:20:48;;;;;;;19.13;14.30;;;11.40;99.90;;;;;;5075938;28;20044;-75
2022/10/31 05:23:14;;;;;;;20.37;13.93;;;11.40;99.90;;;;;;5075730;28;20304;-75
2022/10/31 05:25:40;;;;;;;16.90;13.10;;;11.40;99.90;;;;;;5075950;28;20102;-75
2022/10/31 05:28:06;;;;;;;18.07;13.70;;;11.40;99.90;;;;;;5075740;28;20099;-75
2022/10/31 05:30:33;;;;;;;19.90;13.80;;;11.40;99.90;;;;;;5075246;28;20307;-74
2022/10/31 05:32:59;;;;;;;17.93;13.03;;;11.40;99.90;;;;;;5075965;28;20114;-74
2022/10/31 05:35:27;;;;;;;17.33;14.03;;;11.30;99.90;;;;;;5075490;28;20291;-74
2022/10/31 05:37:53;;;;;;;18.10;13.47;;;11.30;99.90;;;;;;5075909;28;20067;-74
2022/10/31 05:40:20;;;;;;;18.87;13.90;;;11.30;99.90;;;;;;5075384;28;20758;-74
2022/10/31 05:42:47;;;;;;;18.03;13.70;;;11.30;99.90;;;;;;5074489;28;20052;-74
2022/10/31 05:45:16;;;;;;;19.80;13.63;;;11.30;99.90;;;;;;5075355;28;20297;-75
2022/10/31 05:47:42;;;;;;;17.17;13.63;;;11.20;99.90;;;;;;5075403;28;20309;-74
2022/10/31 05:50:09;;;;;;;23.20;14.63;;;11.20;99.90;;;;;;5075584;28;20286;-74
2022/10/31 05:52:35;;;;;;;21.90;14.10;;;11.20;99.90;;;;;;5075188;28;20304;-74
2022/10/31 05:55:01;;;;;;;17.10;13.60;;;11.30;99.90;;;;;;5075604;28;20282;-74
2022/10/31 05:57:28;;;;;;;20.50;14.73;;;11.20;99.90;;;;;;5074006;28;20271;-74
2022/10/31 05:59:54;;;;;;;18.63;14.13;;;11.20;99.90;;;;;;5075349;28;20131;-74
2022/10/31 06:02:20;;;;;;;20.10;13.53;;;11.20;99.90;;;;;;5073970;28;20433;-75
2022/10/31 06:04:46;;;;;;;19.20;14.40;;;11.20;99.90;;;;;;5074876;28;20497;-74
2022/10/31 06:07:12;;;;;;;18.97;13.77;;;11.20;99.90;;;;;;5075125;28;20325;-74
2022/10/31 06:09:37;;;;;;;18.77;13.13;;;11.20;99.90;;;;;;5073639;28;20045;-75
2022/10/31 06:12:03;;;;;;;19.90;13.30;;;11.10;99.90;;;;;;5075263;28;20087;-75
2022/10/31 06:14:29;;;;;;;16.23;13.73;;;11.10;99.90;;;;;;5074754;28;20056;-74
2022/10/31 06:16:55;;;;;;;20.13;14.57;;;11.10;99.90;;;;;;5074967;28;20094;-74
2022/10/31 06:19:21;;;;;;;21.53;14.87;;;11.00;99.90;;;;;;5074640;28;20064;-75
2022/10/31 06:21:47;;;;;;;20.27;14.00;;;11.10;99.90;;;;;;5073325;28;20274;-74
2022/10/31 06:24:13;;;;;;;17.17;13.33;;;11.10;99.90;;;;;;5073609;28;20048;-76
2022/10/31 06:26:38;;;;;;;20.10;15.10;;;11.10;99.90;;;;;;5074407;28;20208;-73
2022/10/31 06:29:04;;;;;;;17.50;13.53;;;11.10;99.90;;;;;;5074370;28;20133;-75
2022/10/31 06:31:30;;;;;;;18.97;14.27;;;11.00;99.90;;;;;;5074315;28;20135;-74
2022/10/31 06:33:56;;;;;;;22.03;14.00;;;11.10;99.90;;;;;;5074652;28;20469;-75
2022/10/31 06:36:22;;;;;;;19.10;14.67;;;11.10;99.90;;;;;;5074358;28;20303;-75
2022/10/31 06:38:47;;;;;;;17.83;14.23;;;11.00;99.90;;;;;;5074698;28;20070;-74
2022/10/31 06:41:13;;;;;;;22.13;14.73;;;11.00;99.90;;;;;;5074444;28;20049;-73
2022/10/31 06:43:39;;;;;;;19.60;14.93;;;11.00;99.90;;;;;;5074174;28;20537;-73
2022/10/31 06:46:05;;;;;;;22.00;16.67;;;11.00;99.90;;;;;;5073075;28;20052;-74
2022/10/31 06:48:32;;;;;;;18.93;14.87;;;11.00;99.90;;;;;;5074082;28;20041;-74
2022/10/31 06:51:00;;;;;;;21.77;15.17;;;11.00;99.90;;;;;;5074243;28;20329;-74
2022/10/31 06:53:29;;;;;;;23.90;14.90;;;11.00;99.90;;;;;;5072700;28;20821;-75
2022/10/31 06:55:56;;;;;;;22.70;15.77;;;11.00;99.90;;;;;;5074338;28;20373;-74
2022/10/31 06:58:22;;;;;;;20.70;15.27;;;11.00;99.90;;;;;;5074159;28;20286;-75
2022/10/31 07:00:47;;;;;;;20.83;15.07;;;11.00;99.90;;;;;;5074213;28;20763;-74
2022/10/31 07:03:15;;;;;;;21.50;16.27;;;11.00;99.90;;;;;;5073019;28;20094;-74
2022/10/31 07:05:41;;;;;;;18.40;14.70;;;11.10;99.90;;;;;;5073875;28;20124;-74
2022/10/31 07:08:10;;;;;;;19.00;15.50;;;11.10;99.90;;;;;;5074068;28;20349;-74
2022/10/31 07:10:36;;;;;;;22.73;15.27;;;11.10;99.90;;;;;;5072835;28;20295;-74
2022/10/31 07:13:05;;;;;;;18.87;14.63;;;11.10;99.90;;;;;;5074016;28;20294;-74
2022/10/31 07:15:34;;;;;;;21.83;16.13;;;11.00;99.90;;;;;;5073736;28;20283;-74
2022/10/31 07:18:04;;;;;;;16.87;15.07;;;11.00;99.90;;;;;;5073871;28;20277;-74
2022/10/31 07:20:31;;;;;;;19.43;15.27;;;11.00;99.90;;;;;;5073745;28;20305;-74
2022/10/31 07:22:56;;;;;;;20.83;15.33;;;11.10;99.90;;;;;;5073806;28;20275;-74
2022/10/31 07:25:23;;;;;;;22.80;15.13;;;11.10;99.90;;;;;;5073782;28;20387;-74
2022/10/31 07:27:49;;;;;;;17.50;14.27;;;11.10;99.90;;;;;;5073360;28;20052;-75
2022/10/31 07:30:17;;;;;;;17.63;14.37;;;11.10;99.90;;;;;;5073681;28;20285;-75
2022/10/31 07:32:50;;;;;;;20.57;14.97;;;11.10;99.90;;;;;;5073140;28;20052;-75
2022/10/31 07:35:21;;;;;;;18.23;13.73;;;11.10;99.90;;;;;;5073664;28;20290;-74
2022/10/31 07:37:47;;;;;;;21.17;15.50;;;11.20;99.90;;;;;;5073081;28;20802;-75
2022/10/31 07:40:13;;;;;;;20.33;14.47;;;11.20;99.90;;;;;;5072609;28;20746;-75
2022/10/31 07:42:44;;;;;;;16.67;14.87;;;11.30;99.90;;;;;;5073392;28;20361;-75
2022/10/31 07:45:12;;;;;;;18.93;14.70;;;11.30;99.90;;;;;;5073471;28;20041;-75
2022/10/31 07:47:48;;;;;;;18.27;15.50;;;11.30;99.90;;;;;;5073273;28;20299;-74
2022/10/31 07:50:17;;;;;;;20.67;14.53;;;11.40;99.90;;;;;;5073767;28;20311;-74
2022/10/31 07:52:43;;;;;;;19.23;14.93;;;11.40;99.90;;;;;;5073211;28;20290;-74
2022/10/31 07:55:09;;;;;;;23.07;13.53;;;11.50;99.90;;;;;;5072231;28;20283;-74
2022/10/31 07:57:36;;;;;;;18.30;14.70;;;11.40;99.90;;;;;;5073173;28;20076;-75
2022/10/31 08:00:09;;;;;;;18.70;15.60;;;11.50;99.90;;;;;;5072946;28;20759;-74
2022/10/31 08:02:35;;;;;;;21.27;14.87;;;11.50;99.90;;;;;;5073132;28;20320;-75
2022/10/31 08:05:03;;;;;;;18.93;14.83;;;11.50;99.90;;;;;;5072538;28;20287;-75
2022/10/31 08:07:29;;;;;;;20.10;14.77;;;11.50;99.90;;;;;;5072964;28;20049;-75
2022/10/31 08:09:55;;;;;;;20.73;14.80;;;11.50;99.90;;;;;;5072839;28;20289;-74
2022/10/31 08:12:21;;;;;;;20.23;14.43;;;11.50;99.90;;;;;;5073036;28;20318;-75
2022/10/31 08:14:47;;;;;;;18.17;14.77;;;11.60;99.90;;;;;;5073011;28;20321;-74
2022/10/31 08:17:13;;;;;;;18.63;14.50;;;11.60;99.90;;;;;;5073149;28;20453;-75
2022/10/31 08:19:38;;;;;;;17.63;15.07;;;11.60;99.90;;;;;;5073012;28;20056;-75
2022/10/31 08:22:04;;;;;;;20.83;14.67;;;11.60;99.90;;;;;;5071916;28;20502;-75
2022/10/31 08:24:30;;;;;;;17.37;14.03;;;11.60;99.90;;;;;;5073311;28;20044;-74
2022/10/31 08:26:55;;;;;;;19.47;14.60;;;11.60;99.90;;;;;;5071803;28;20452;-75
2022/10/31 08:29:21;;;;;;;17.33;14.83;;;11.60;99.90;;;;;;5073370;28;20059;-75
2022/10/31 08:31:47;;;;;;;21.13;15.67;;;11.70;99.90;;;;;;5072861;28;20102;-75
2022/10/31 08:34:12;;;;;;;18.53;15.33;;;11.70;99.90;;;;;;5073400;28;20044;-75
2022/10/31 08:36:38;;;;;;;20.80;15.10;;;11.70;99.90;;;;;;5072801;28;20509;-75
2022/10/31 08:39:04;;;;;;;17.80;14.43;;;11.70;99.90;;;;;;5072975;28;20048;-75
2022/10/31 08:41:30;;;;;;;18.30;15.20;;;11.70;99.90;;;;;;5072943;28;20048;-75
2022/10/31 08:43:56;;;;;;;17.53;14.33;;;11.70;99.90;;;;;;5072717;28;20048;-74
2022/10/31 08:46:22;;;;;;;18.47;14.83;;;11.70;99.90;;;;;;5075083;28;20311;-74
2022/10/31 08:48:48;;;;;;;19.53;15.30;;;11.80;99.90;;;;;;5076625;28;20053;-75
2022/10/31 08:51:13;;;;;;;20.60;14.93;;;11.80;99.90;;;;;;5076748;28;20053;-75
2022/10/31 08:53:39;;;;;;;19.70;14.43;;;11.80;99.90;;;;;;5076753;28;20278;-75
2022/10/31 08:56:05;;;;;;;20.87;14.70;;;11.90;99.90;;;;;;5076671;28;20040;-75
2022/10/31 08:58:31;;;;;;;21.83;15.80;;;11.90;99.90;;;;;;5076599;28;20094;-75
2022/10/31 09:01:00;;;;;;;20.87;16.07;;;12.00;99.90;;;;;;5076405;28;20128;-75
2022/10/31 09:03:28;;;;;;;15.97;14.20;;;12.00;99.90;;;;;;5076737;28;20499;-75
2022/10/31 09:05:59;;;;;;;17.87;14.93;;;12.10;99.90;;;;;;5076117;28;20374;-75
2022/10/31 09:08:25;;;;;;;17.83;14.87;;;12.10;99.90;;;;;;5076425;28;20666;-75
2022/10/31 09:10:51;;;;;;;20.80;14.77;;;12.10;99.90;;;;;;5074750;28;20295;-75
2022/10/31 09:13:20;;;;;;;18.33;15.43;;;12.20;99.90;;;;;;5076114;28;20052;-75
2022/10/31 09:15:48;;;;;;;16.93;14.20;;;12.20;99.90;;;;;;5075889;28;20361;-75
2022/10/31 09:18:16;;;;;;;20.00;15.10;;;12.30;99.90;;;;;;5075107;28;20278;-75
2022/10/31 09:20:43;;;;;;;20.77;15.87;;;12.30;99.90;;;;;;5074731;28;20291;-75
2022/10/31 09:23:12;;;;;;;21.83;14.80;;;12.40;99.90;;;;;;5076153;28;20285;-75
2022/10/31 09:25:38;;;;;;;21.80;15.67;;;12.40;99.90;;;;;;5076106;28;20300;-75
2022/10/31 09:28:05;;;;;;;21.47;14.93;;;12.50;99.90;;;;;;5075702;28;20767;-75
2022/10/31 09:30:34;;;;;;;19.03;15.17;;;12.50;99.90;;;;;;5075976;28;20348;-75
2022/10/31 09:33:05;;;;;;;18.00;14.57;;;12.60;99.90;;;;;;5075717;28;20286;-75
2022/10/31 09:35:31;;;;;;;21.03;15.50;;;12.60;99.90;;;;;;5076076;28;20277;-74
2022/10/31 09:37:59;;;;;;;20.77;15.07;;;12.70;99.90;;;;;;5075668;28;20701;-75
2022/10/31 09:40:43;;;;;;;20.13;15.43;;;12.70;99.90;;;;;;5075858;28;20045;-75
2022/10/31 09:43:39;;;;;;;19.67;15.07;;;12.80;99.90;;;;;;5075281;28;20295;-75
2022/10/31 09:46:11;;;;;;;20.23;13.77;;;12.80;99.90;;;;;;5074429;28;20834;-75
2022/10/31 09:48:44;;;;;;;19.33;15.17;;;12.90;99.90;;;;;;5075723;28;20052;-75
2022/10/31 09:51:19;;;;;;;20.03;14.80;;;12.90;99.90;;;;;;5075511;28;20302;-75
2022/10/31 09:54:19;;;;;;;21.13;14.80;;;13.00;99.90;;;;;;5074605;28;20293;-75
2022/10/31 09:56:45;;;;;;;21.23;13.97;;;12.90;99.90;;;;;;5075310;28;20362;-75
2022/10/31 09:59:25;;;;;;;16.73;12.40;;;13.00;99.90;;;;;;5075238;28;20361;-75
2022/10/31 10:02:23;;;;;;;18.07;13.10;;;13.00;99.90;;;;;;5075386;28;20454;-75
2022/10/31 10:05:04;;;;;;;20.13;13.00;;;13.10;99.90;;;;;;5071203;28;20295;-75
2022/10/31 10:07:41;;;;;;;16.97;13.57;;;13.10;99.90;;;;;;5075321;28;20351;-75
2022/10/31 10:10:30;;;;;;;18.47;13.93;;;13.10;99.90;;;;;;5074897;28;20834;-75
2022/10/31 10:13:15;;;;;;;17.13;12.40;;;13.30;99.90;;;;;;5075082;28;20290;-75
2022/10/31 10:16:07;;;;;;;22.00;13.35;;;13.40;99.90;;;;;;5075075;28;20367;-75
2022/10/31 10:18:35;;;;;;;17.07;11.87;;;13.50;99.90;;;;;;5067266;28;20450;-75
2022/10/31 10:21:19;;;;;;;17.70;12.27;;;13.60;99.90;;;;;;5074943;28;20282;-75
2022/10/31 10:24:17;;;;;;;17.80;13.37;;;13.70;99.90;;;;;;5075297;28;20282;-75
2022/10/31 10:27:11;;;;;;;18.77;13.27;;;13.80;99.90;;;;;;5037489;28;20311;-74
2022/10/31 10:29:58;;;;;;;23.67;13.50;;;13.90;99.90;;;;;;5075207;28;20294;-75
2022/10/31 10:32:28;;;;;;;19.07;13.77;;;13.90;99.90;;;;;;5074933;28;20285;-75
2022/10/31 10:35:02;;;;;;;19.40;12.83;;;13.90;99.90;;;;;;5074596;28;20285;-75
2022/10/31 10:37:35;;;;;;;18.57;12.40;;;14.00;99.90;;;;;;5074533;28;20771;-75
2022/10/31 10:40:24;;;;;;;17.40;12.77;;;14.00;99.90;;;;;;5074651;28;20348;-75
2022/10/31 10:43:23;;;;;;;17.37;12.73;;;14.00;99.90;;;;;;5068998;28;20295;-75
2022/10/31 10:48:57;;;;;;;18.40;13.60;;;14.00;99.90;;;;;;5074387;28;20651;-75
2022/10/31 10:51:41;;;;;;;14.10;10.73;;;14.00;99.90;;;;;;5074839;28;20441;-75
2022/10/31 10:54:33;;;;;;;15.93;11.83;;;14.10;99.90;;;;;;5074299;28;20279;-75
2022/10/31 10:57:18;;;;;;;18.10;12.60;;;14.10;99.90;;;;;;5073850;28;20759;-75
2022/10/31 10:59:45;;;;;;;16.55;12.70;;;14.20;99.90;;;;;;5074591;28;20373;-75
2022/10/31 11:02:20;;;;;;;18.37;12.10;;;14.20;99.90;;;;;;5073137;28;20055;-75
2022/10/31 11:04:53;;;;;;;19.90;12.37;;;14.20;99.90;;;;;;5074207;28;20045;-75
2022/10/31 11:07:20;;;;;;;16.40;11.93;;;14.30;99.90;;;;;;5073342;28;20356;-75
2022/10/31 11:09:46;;;;;;;18.97;10.53;;;14.30;99.90;;;;;;5074055;28;20109;-75
2022/10/31 11:12:29;;;;;;;18.23;11.23;;;14.20;99.90;;;;;;5073906;28;20052;-75
2022/10/31 11:15:03;;;;;;;15.93;11.50;;;14.20;99.90;;;;;;5073038;28;20044;-75
2022/10/31 11:17:35;;;;;;;19.13;11.20;;;14.20;99.90;;;;;;5074051;28;20157;-75
2022/10/31 11:20:22;;;;;;;17.47;11.87;;;14.20;99.90;;;;;;5073704;28;20518;-75
2022/10/31 11:22:48;;;;;;;17.37;11.50;;;14.20;99.90;;;;;;5073655;28;20290;-75
2022/10/31 11:25:25;;;;;;;20.20;12.63;;;14.20;99.90;;;;;;5073630;28;20127;-75
2022/10/31 11:28:08;;;;;;;20.37;13.23;;;14.20;99.90;;;;;;5072143;28;20056;-74
2022/10/31 11:30:45;;;;;;;17.60;13.20;;;14.20;99.90;;;;;;5073764;28;20092;-75
2022/10/31 11:33:24;;;;;;;20.63;13.53;;;14.20;99.90;;;;;;5073517;28;20041;-75
2022/10/31 11:35:52;;;;;;;23.03;14.73;;;14.20;99.90;;;;;;5073824;28;20045;-75
2022/10/31 11:38:21;;;;;;;19.40;13.97;;;14.30;99.90;;;;;;5073197;28;20500;-75
2022/10/31 11:41:08;;;;;;;18.20;13.83;;;14.30;99.90;;;;;;5074854;28;20682;-75
2022/10/31 11:43:34;;;;;;;17.17;13.47;;;14.30;99.90;;;;;;5073601;28;20127;-75
2022/10/31 11:46:08;;;;;;;21.80;15.03;;;14.30;99.90;;;;;;5073465;28;20136;-75
2022/10/31 11:48:33;;;;;;;20.27;14.87;;;14.40;99.90;;;;;;5072687;28;20397;-75
2022/10/31 11:50:59;;;;;;;19.53;14.33;;;14.40;99.90;;;;;;5073478;28;20054;-75
2022/10/31 11:53:30;;;;;;;19.30;14.63;;;14.50;99.90;;;;;;5073293;28;20051;-75
2022/10/31 11:56:02;;;;;;;20.50;14.80;;;14.50;99.90;;;;;;5073555;28;20113;-75
2022/10/31 11:58:27;;;;;;;15.40;12.07;;;14.60;99.90;;;;;;5073173;28;20643;-75
2022/10/31 12:00:56;;;;;;;19.33;12.37;;;14.60;99.90;;;;;;5073385;28;20049;-75
2022/10/31 12:03:51;;;;;;;16.20;11.43;;;14.70;99.90;;;;;;5073079;28;20040;-75
2022/10/31 12:06:26;;;;;;;15.57;10.38;;;14.80;99.90;;;;;;5073120;28;20078;-75
2022/10/31 12:08:51;;;;;;;13.38;9.65;;;14.80;99.90;;;;;;5073358;28;20130;-75
2022/10/31 12:11:45;;;;;;;14.67;9.30;;;14.80;99.90;;;;;;5073107;28;20052;-75
2022/10/31 12:14:17;;;;;;;12.40;9.50;;;14.80;99.90;;;;;;5055511;28;20051;-75
2022/10/31 12:17:04;;;;;;;13.40;9.30;;;14.90;99.90;;;;;;5073195;28;20490;-75
2022/10/31 12:19:42;;;;;;;15.43;9.23;;;14.90;99.90;;;;;;5074973;28;20051;-75
2022/10/31 12:22:32;;;;;;;11.03;8.20;;;14.90;99.90;;;;;;5059631;28;20048;-75
2022/10/31 12:25:10;;;;;;;15.97;9.17;;;14.90;99.90;;;;;;5077435;28;20197;-75
2022/10/31 12:27:58;;;;;;;14.37;8.70;;;15.00;99.90;;;;;;5077593;28;20087;-75
2022/10/31 12:30:49;;;;;;;11.63;8.17;;;14.90;99.90;;;;;;5077025;28;20062;-75
2022/10/31 12:33:34;;;;;;;15.17;8.40;;;14.90;99.90;;;;;;5076976;28;20052;-75
2022/10/31 12:36:21;;;;;;;13.20;7.70;;;14.90;99.90;;;;;;5076991;28;20049;-75
2022/10/31 12:38:55;;;;;;;11.97;7.67;;;14.90;99.90;;;;;;5077374;28;20048;-75
2022/10/31 12:41:52;;;;;;;11.70;7.70;;;14.90;99.90;;;;;;5076924;28;20044;-75
2022/10/31 12:45:02;;;;;;;12.87;7.40;;;14.90;99.90;;;;;;5076474;28;20485;-75
2022/10/31 12:47:31;;;;;;;16.77;8.00;;;14.90;99.90;;;;;;5060303;28;20052;-75
2022/10/31 12:50:20;;;;;;;17.60;7.30;;;14.90;99.90;;;;;;5077041;28;20071;-75
2022/10/31 12:53:04;;;;;;;14.23;7.13;;;14.90;99.90;;;;;;5076800;28;20049;-75